HSZ weather

Hsinchu Air Base
Hsinchu City, Hsinchu (city), Taiwan

Public forecast

Using degrees Celsius for public forecast. Weather courtesy of forecast.io.

METAR (pilot weather report)

Closest report is Taiwan Taoyuan International Airport, 22.3 nm (41.4 km) NE. Retrieved 2019/05/22 10:00 UTC (6 minutes ago):

RCTP 221000Z 15004KT 110V190 9999 -RA FEW015 BKN045 BKN070 25/20 Q1009 NOSIG RMK A2981

TAF (pilot weather forecast)

Forecast is more than 12 hours old.

Retrieved 2015/08/01 06:46 UTC (4 years ago):

TAF RCPO 010500Z 0106/0206 27010KT 9999 FEW020 TX33/0106Z TN27/0120Z BECMG 0111/0114 21004KT TEMPO 0118/0123 FEW020 BKN120 BECMG 0202/0205 33010KT